sensor_id;sensor_type;location;lat;lon;timestamp;P1;durP1;ratioP1;P2;durP2;ratioP2
23594;SDS011;11975;47.674;9.472;2023-02-01T04:53:33;26.30;;;24.80;;
23594;SDS011;11975;47.674;9.472;2023-02-01T04:55:59;26.42;;;24.88;;
23594;SDS011;11975;47.674;9.472;2023-02-01T04:58:25;27.25;;;25.38;;
23594;SDS011;11975;47.674;9.472;2023-02-01T05:00:51;29.23;;;27.23;;
23594;SDS011;11975;47.674;9.472;2023-02-01T05:03:17;27.60;;;25.75;;
23594;SDS011;11975;47.674;9.472;2023-02-01T05:05:43;26.50;;;24.88;;
23594;SDS011;11975;47.674;9.472;2023-02-01T05:08:09;25.48;;;23.98;;
23594;SDS011;11975;47.674;9.472;2023-02-01T05:10:35;24.85;;;23.45;;
23594;SDS011;11975;47.674;9.472;2023-02-01T05:13:01;25.98;;;24.48;;
23594;SDS011;11975;47.674;9.472;2023-02-01T05:15:45;25.45;;;24.00;;
23594;SDS011;11975;47.674;9.472;2023-02-01T05:18:12;24.70;;;23.30;;
23594;SDS011;11975;47.674;9.472;2023-02-01T05:20:38;25.60;;;24.10;;
23594;SDS011;11975;47.674;9.472;2023-02-01T05:23:04;25.20;;;23.70;;
23594;SDS011;11975;47.674;9.472;2023-02-01T05:25:30;24.95;;;23.27;;
23594;SDS011;11975;47.674;9.472;2023-02-01T05:27:56;25.73;;;24.17;;
23594;SDS011;11975;47.674;9.472;2023-02-01T05:30:22;24.08;;;22.67;;
23594;SDS011;11975;47.674;9.472;2023-02-01T05:32:51;23.70;;;22.38;;
23594;SDS011;11975;47.674;9.472;2023-02-01T05:35:17;24.30;;;22.90;;
23594;SDS011;11975;47.674;9.472;2023-02-01T05:37:43;23.80;;;22.50;;
23594;SDS011;11975;47.674;9.472;2023-02-01T05:40:10;23.50;;;22.20;;
23594;SDS011;11975;47.674;9.472;2023-02-01T05:42:36;23.67;;;22.27;;
23594;SDS011;11975;47.674;9.472;2023-02-01T05:45:02;23.95;;;22.55;;
23594;SDS011;11975;47.674;9.472;2023-02-01T05:47:30;23.25;;;21.95;;
23594;SDS011;11975;47.674;9.472;2023-02-01T05:49:56;23.75;;;22.42;;
23594;SDS011;11975;47.674;9.472;2023-02-01T05:52:22;23.70;;;22.40;;
23594;SDS011;11975;47.674;9.472;2023-02-01T05:54:48;24.20;;;22.70;;
23594;SDS011;11975;47.674;9.472;2023-02-01T05:57:14;23.98;;;22.58;;
23594;SDS011;11975;47.674;9.472;2023-02-01T05:59:41;24.00;;;22.60;;
23594;SDS011;11975;47.674;9.472;2023-02-01T06:02:07;23.60;;;22.30;;
23594;SDS011;11975;47.674;9.472;2023-02-01T06:04:34;24.10;;;22.70;;
23594;SDS011;11975;47.674;9.472;2023-02-01T06:07:00;23.23;;;21.92;;
23594;SDS011;11975;47.674;9.472;2023-02-01T06:09:25;22.98;;;21.67;;
23594;SDS011;11975;47.674;9.472;2023-02-01T06:11:51;23.60;;;22.20;;
23594;SDS011;11975;47.674;9.472;2023-02-01T06:14:17;23.65;;;22.25;;
23594;SDS011;11975;47.674;9.472;2023-02-01T06:16:43;22.65;;;21.35;;
23594;SDS011;11975;47.674;9.472;2023-02-01T06:19:11;23.77;;;22.38;;
23594;SDS011;11975;47.674;9.472;2023-02-01T06:21:36;23.90;;;22.50;;
23594;SDS011;11975;47.674;9.472;2023-02-01T06:24:02;22.55;;;21.27;;
23594;SDS011;11975;47.674;9.472;2023-02-01T06:26:29;22.80;;;21.50;;
23594;SDS011;11975;47.674;9.472;2023-02-01T06:28:55;22.58;;;21.30;;
23594;SDS011;11975;47.674;9.472;2023-02-01T06:31:22;23.10;;;21.80;;
23594;SDS011;11975;47.674;9.472;2023-02-01T06:33:48;24.38;;;22.88;;
23594;SDS011;11975;47.674;9.472;2023-02-01T06:36:14;23.10;;;21.80;;
23594;SDS011;11975;47.674;9.472;2023-02-01T06:38:46;23.15;;;21.83;;
23594;SDS011;11975;47.674;9.472;2023-02-01T06:41:13;23.30;;;22.00;;
23594;SDS011;11975;47.674;9.472;2023-02-01T06:43:39;22.95;;;21.65;;
23594;SDS011;11975;47.674;9.472;2023-02-01T06:46:06;22.77;;;21.48;;
23594;SDS011;11975;47.674;9.472;2023-02-01T06:48:33;22.98;;;21.67;;
23594;SDS011;11975;47.674;9.472;2023-02-01T06:50:59;22.90;;;21.60;;
23594;SDS011;11975;47.674;9.472;2023-02-01T16:25:33;24.73;;;23.33;;
23594;SDS011;11975;47.674;9.472;2023-02-01T16:27:59;25.08;;;23.58;;
23594;SDS011;11975;47.674;9.472;2023-02-01T16:30:25;23.80;;;22.45;;
23594;SDS011;11975;47.674;9.472;2023-02-01T16:32:52;24.40;;;23.00;;
23594;SDS011;11975;47.674;9.472;2023-02-01T16:37:53;23.70;;;22.38;;
23594;SDS011;11975;47.674;9.472;2023-02-01T16:40:20;24.73;;;23.10;;
23594;SDS011;11975;47.674;9.472;2023-02-01T16:42:47;23.73;;;22.23;;
23594;SDS011;11975;47.674;9.472;2023-02-01T16:45:15;26.85;;;23.85;;
23594;SDS011;11975;47.674;9.472;2023-02-01T16:47:44;24.13;;;22.73;;
23594;SDS011;11975;47.674;9.472;2023-02-01T16:50:17;22.85;;;21.55;;
23594;SDS011;11975;47.674;9.472;2023-02-01T16:52:46;23.33;;;22.02;;
23594;SDS011;11975;47.674;9.472;2023-02-01T16:55:13;23.90;;;22.40;;
23594;SDS011;11975;47.674;9.472;2023-02-01T16:57:41;23.10;;;21.70;;
23594;SDS011;11975;47.674;9.472;2023-02-01T17:00:08;23.00;;;21.70;;
23594;SDS011;11975;47.674;9.472;2023-02-01T17:02:35;22.98;;;21.65;;
23594;SDS011;11975;47.674;9.472;2023-02-01T17:05:01;22.77;;;21.48;;
23594;SDS011;11975;47.674;9.472;2023-02-01T17:07:27;23.92;;;22.17;;
23594;SDS011;11975;47.674;9.472;2023-02-01T17:09:53;22.75;;;21.45;;
23594;SDS011;11975;47.674;9.472;2023-02-01T17:14:50;22.42;;;21.13;;
23594;SDS011;11975;47.674;9.472;2023-02-01T17:17:17;23.15;;;21.83;;
23594;SDS011;11975;47.674;9.472;2023-02-01T17:19:47;22.95;;;21.60;;
23594;SDS011;11975;47.674;9.472;2023-02-01T17:22:17;22.60;;;21.30;;
23594;SDS011;11975;47.674;9.472;2023-02-01T17:24:44;22.45;;;21.15;;
23594;SDS011;11975;47.674;9.472;2023-02-01T17:27:10;22.25;;;20.95;;
23594;SDS011;11975;47.674;9.472;2023-02-01T17:29:37;22.80;;;21.50;;
23594;SDS011;11975;47.674;9.472;2023-02-01T17:32:03;22.95;;;21.55;;
23594;SDS011;11975;47.674;9.472;2023-02-01T17:34:29;23.00;;;21.70;;
23594;SDS011;11975;47.674;9.472;2023-02-01T17:36:55;21.90;;;20.70;;
23594;SDS011;11975;47.674;9.472;2023-02-01T17:39:21;21.98;;;20.77;;
23594;SDS011;11975;47.674;9.472;2023-02-01T17:42:11;22.90;;;21.60;;
23594;SDS011;11975;47.674;9.472;2023-02-01T17:44:37;22.08;;;20.88;;
23594;SDS011;11975;47.674;9.472;2023-02-01T17:47:03;23.77;;;22.20;;
23594;SDS011;11975;47.674;9.472;2023-02-01T17:49:29;22.88;;;21.58;;
23594;SDS011;11975;47.674;9.472;2023-02-01T17:51:55;22.27;;;20.98;;
23594;SDS011;11975;47.674;9.472;2023-02-01T17:54:22;22.40;;;21.10;;
23594;SDS011;11975;47.674;9.472;2023-02-01T17:56:48;23.45;;;22.05;;
23594;SDS011;11975;47.674;9.472;2023-02-01T17:59:14;22.35;;;21.05;;
23594;SDS011;11975;47.674;9.472;2023-02-01T18:01:40;22.05;;;20.75;;
23594;SDS011;11975;47.674;9.472;2023-02-01T18:04:10;22.15;;;20.95;;
23594;SDS011;11975;47.674;9.472;2023-02-01T18:06:37;22.70;;;21.40;;
23594;SDS011;11975;47.674;9.472;2023-02-01T18:09:03;21.92;;;20.73;;
23594;SDS011;11975;47.674;9.472;2023-02-01T18:11:29;21.55;;;20.33;;
23594;SDS011;11975;47.674;9.472;2023-02-01T18:13:57;22.30;;;21.00;;
23594;SDS011;11975;47.674;9.472;2023-02-01T18:16:25;22.50;;;21.10;;
23594;SDS011;11975;47.674;9.472;2023-02-01T18:18:53;22.58;;;21.27;;
23594;SDS011;11975;47.674;9.472;2023-02-01T18:21:20;21.85;;;20.60;;
23594;SDS011;11975;47.674;9.472;2023-02-01T18:23:47;22.20;;;20.90;;
23594;SDS011;11975;47.674;9.472;2023-02-01T18:26:14;23.13;;;21.83;;
23594;SDS011;11975;47.674;9.472;2023-02-01T18:28:42;22.23;;;21.02;;
23594;SDS011;11975;47.674;9.472;2023-02-01T18:33:50;22.25;;;20.95;;
23594;SDS011;11975;47.674;9.472;2023-02-01T18:36:17;22.63;;;21.33;;
23594;SDS011;11975;47.674;9.472;2023-02-01T18:38:43;21.83;;;20.52;;
23594;SDS011;11975;47.674;9.472;2023-02-01T18:41:10;21.50;;;20.30;;
23594;SDS011;11975;47.674;9.472;2023-02-01T18:43:39;21.17;;;19.98;;
23594;SDS011;11975;47.674;9.472;2023-02-01T18:46:07;22.38;;;21.08;;
23594;SDS011;11975;47.674;9.472;2023-02-01T18:48:34;22.00;;;20.70;;
23594;SDS011;11975;47.674;9.472;2023-02-01T18:51:00;22.23;;;20.88;;
23594;SDS011;11975;47.674;9.472;2023-02-01T18:53:26;21.55;;;20.35;;
23594;SDS011;11975;47.674;9.472;2023-02-01T18:55:53;21.65;;;20.45;;
23594;SDS011;11975;47.674;9.472;2023-02-01T18:58:19;23.75;;;22.25;;
23594;SDS011;11975;47.674;9.472;2023-02-01T19:00:46;23.98;;;21.92;;
23594;SDS011;11975;47.674;9.472;2023-02-01T19:03:15;22.53;;;21.13;;
23594;SDS011;11975;47.674;9.472;2023-02-01T19:05:41;22.25;;;20.95;;
23594;SDS011;11975;47.674;9.472;2023-02-01T19:08:07;21.95;;;20.75;;
23594;SDS011;11975;47.674;9.472;2023-02-01T19:10:33;22.17;;;20.87;;
23594;SDS011;11975;47.674;9.472;2023-02-01T19:13:03;22.45;;;21.05;;
23594;SDS011;11975;47.674;9.472;2023-02-01T19:15:29;22.15;;;20.90;;
23594;SDS011;11975;47.674;9.472;2023-02-01T19:20:24;21.73;;;20.52;;
23594;SDS011;11975;47.674;9.472;2023-02-01T19:22:51;22.38;;;21.08;;
23594;SDS011;11975;47.674;9.472;2023-02-01T19:25:22;21.90;;;20.60;;
23594;SDS011;11975;47.674;9.472;2023-02-01T19:27:49;22.13;;;20.92;;
23594;SDS011;11975;47.674;9.472;2023-02-01T19:30:16;21.77;;;20.58;;
23594;SDS011;11975;47.674;9.472;2023-02-01T19:32:43;22.00;;;20.70;;
23594;SDS011;11975;47.674;9.472;2023-02-01T19:35:09;22.30;;;21.00;;
23594;SDS011;11975;47.674;9.472;2023-02-01T19:37:38;21.60;;;20.40;;
23594;SDS011;11975;47.674;9.472;2023-02-01T19:40:07;23.13;;;21.52;;
23594;SDS011;11975;47.674;9.472;2023-02-01T19:42:37;21.65;;;20.40;;
23594;SDS011;11975;47.674;9.472;2023-02-01T19:45:03;21.55;;;20.35;;
23594;SDS011;11975;47.674;9.472;2023-02-01T19:47:30;22.52;;;21.23;;
23594;SDS011;11975;47.674;9.472;2023-02-01T19:49:56;21.85;;;20.65;;
23594;SDS011;11975;47.674;9.472;2023-02-01T19:52:22;21.98;;;20.67;;
23594;SDS011;11975;47.674;9.472;2023-02-01T19:54:48;22.00;;;20.70;;
23594;SDS011;11975;47.674;9.472;2023-02-01T19:57:14;23.85;;;22.35;;
23594;SDS011;11975;47.674;9.472;2023-02-01T19:59:40;22.08;;;20.88;;
23594;SDS011;11975;47.674;9.472;2023-02-01T20:02:06;22.27;;;21.08;;
23594;SDS011;11975;47.674;9.472;2023-02-01T20:04:32;22.05;;;20.85;;
23594;SDS011;11975;47.674;9.472;2023-02-01T20:06:58;21.83;;;20.60;;
23594;SDS011;11975;47.674;9.472;2023-02-01T20:09:25;22.90;;;21.20;;
23594;SDS011;11975;47.674;9.472;2023-02-01T20:11:53;21.67;;;20.48;;
23594;SDS011;11975;47.674;9.472;2023-02-01T20:14:25;22.30;;;21.00;;
23594;SDS011;11975;47.674;9.472;2023-02-01T20:16:52;21.58;;;20.38;;
23594;SDS011;11975;47.674;9.472;2023-02-01T20:19:18;22.83;;;21.42;;
23594;SDS011;11975;47.674;9.472;2023-02-01T20:21:44;22.00;;;20.70;;
23594;SDS011;11975;47.674;9.472;2023-02-01T20:24:14;23.30;;;21.67;;
23594;SDS011;11975;47.674;9.472;2023-02-01T20:26:42;21.90;;;20.70;;
23594;SDS011;11975;47.674;9.472;2023-02-01T20:29:09;22.63;;;21.23;;
23594;SDS011;11975;47.674;9.472;2023-02-01T20:31:35;22.13;;;20.83;;
23594;SDS011;11975;47.674;9.472;2023-02-01T20:34:01;21.92;;;20.70;;
23594;SDS011;11975;47.674;9.472;2023-02-01T20:36:28;21.95;;;20.65;;
23594;SDS011;11975;47.674;9.472;2023-02-01T20:38:55;22.20;;;20.92;;
23594;SDS011;11975;47.674;9.472;2023-02-01T20:41:22;23.50;;;21.90;;
23594;SDS011;11975;47.674;9.472;2023-02-01T20:43:48;23.25;;;21.95;;
23594;SDS011;11975;47.674;9.472;2023-02-01T20:46:15;23.13;;;21.73;;
23594;SDS011;11975;47.674;9.472;2023-02-01T20:48:42;22.02;;;20.80;;
23594;SDS011;11975;47.674;9.472;2023-02-01T20:51:09;23.70;;;22.30;;
23594;SDS011;11975;47.674;9.472;2023-02-01T20:53:36;23.70;;;21.92;;
23594;SDS011;11975;47.674;9.472;2023-02-01T20:56:02;22.13;;;20.83;;
23594;SDS011;11975;47.674;9.472;2023-02-01T20:58:28;23.55;;;22.05;;
23594;SDS011;11975;47.674;9.472;2023-02-01T21:00:54;23.02;;;21.70;;
23594;SDS011;11975;47.674;9.472;2023-02-01T21:03:21;24.00;;;22.50;;
23594;SDS011;11975;47.674;9.472;2023-02-01T21:05:49;22.50;;;21.20;;
23594;SDS011;11975;47.674;9.472;2023-02-01T21:08:17;22.30;;;21.00;;
23594;SDS011;11975;47.674;9.472;2023-02-01T21:10:43;22.60;;;21.20;;
23594;SDS011;11975;47.674;9.472;2023-02-01T21:13:10;23.23;;;21.73;;
23594;SDS011;11975;47.674;9.472;2023-02-01T21:15:36;22.63;;;21.27;;
23594;SDS011;11975;47.674;9.472;2023-02-01T21:18:03;22.48;;;21.17;;
23594;SDS011;11975;47.674;9.472;2023-02-01T21:20:29;22.92;;;21.63;;
23594;SDS011;11975;47.674;9.472;2023-02-01T21:22:56;22.55;;;21.25;;
23594;SDS011;11975;47.674;9.472;2023-02-01T21:25:22;21.67;;;20.48;;
23594;SDS011;11975;47.674;9.472;2023-02-01T21:27:48;21.63;;;20.42;;
23594;SDS011;11975;47.674;9.472;2023-02-01T21:30:14;23.52;;;21.92;;
23594;SDS011;11975;47.674;9.472;2023-02-01T21:32:40;22.65;;;21.35;;
23594;SDS011;11975;47.674;9.472;2023-02-01T21:35:07;21.92;;;20.73;;
23594;SDS011;11975;47.674;9.472;2023-02-01T21:37:33;22.48;;;21.08;;
23594;SDS011;11975;47.674;9.472;2023-02-01T21:39:59;22.45;;;21.05;;
23594;SDS011;11975;47.674;9.472;2023-02-01T21:42:25;22.42;;;21.17;;
23594;SDS011;11975;47.674;9.472;2023-02-01T21:44:51;22.75;;;21.45;;
23594;SDS011;11975;47.674;9.472;2023-02-01T21:47:21;21.45;;;20.25;;
23594;SDS011;11975;47.674;9.472;2023-02-01T21:49:47;21.67;;;20.48;;
23594;SDS011;11975;47.674;9.472;2023-02-01T21:52:14;22.38;;;21.08;;
23594;SDS011;11975;47.674;9.472;2023-02-01T21:54:40;22.13;;;20.92;;
23594;SDS011;11975;47.674;9.472;2023-02-01T21:57:07;22.20;;;20.95;;
23594;SDS011;11975;47.674;9.472;2023-02-01T21:59:36;23.45;;;21.63;;
23594;SDS011;11975;47.674;9.472;2023-02-01T22:02:03;22.50;;;21.20;;
23594;SDS011;11975;47.674;9.472;2023-02-01T22:04:30;23.38;;;21.98;;
23594;SDS011;11975;47.674;9.472;2023-02-01T22:06:57;22.48;;;21.25;;
23594;SDS011;11975;47.674;9.472;2023-02-01T22:09:23;21.85;;;20.65;;
23594;SDS011;11975;47.674;9.472;2023-02-01T22:11:51;22.40;;;21.10;;
23594;SDS011;11975;47.674;9.472;2023-02-01T22:16:44;22.10;;;20.90;;
23594;SDS011;11975;47.674;9.472;2023-02-01T22:19:10;21.83;;;20.63;;
23594;SDS011;11975;47.674;9.472;2023-02-01T22:21:40;23.02;;;21.70;;
